Time;durP1;ratioP1;P1;durP2;ratioP2;P2;SDS_P1;SDS_P2;PMS_P1;PMS_P2;Temp;Humidity;BMP_temperature;BMP_pressure;BME280_temperature;BME280_humidity;BME280_pressure;Samples;Min_cycle;Max_cycle;Signal;HPM_P1;HPM_P2
2021/09/05 00:01:30;;;;;;;;;;;11.10;99.90;;;;;;8357340;28;19905;-64
2021/09/05 00:05:31;;;;;;;;;;;11.00;99.90;;;;;;8357090;28;20368;-65
2021/09/05 00:09:31;;;;;;;;;;;10.90;99.90;;;;;;8356615;28;19954;-65
2021/09/05 00:13:31;;;;;;;;;;;10.80;99.90;;;;;;8339221;28;19913;-64
2021/09/05 00:17:32;;;;;;;;;;;10.70;99.90;;;;;;8356835;28;19911;-64
2021/09/05 00:21:32;;;;;;;;;;;11.00;99.90;;;;;;8339128;28;19908;-64
2021/09/05 00:25:33;;;;;;;;;;;11.10;99.90;;;;;;8356164;28;19915;-64
2021/09/05 00:29:33;;;;;;;;;;;10.90;99.90;;;;;;8356925;28;19947;-64
2021/09/05 00:33:34;;;;;;;;;;;10.70;99.90;;;;;;8356193;28;19921;-65
2021/09/05 00:37:35;;;;;;;;;;;10.40;99.90;;;;;;8356098;28;19913;-64
2021/09/05 00:41:35;;;;;;;;;;;10.40;99.90;;;;;;8318981;28;1040610;-64
2021/09/05 00:45:35;;;;;;;;;;;10.30;99.90;;;;;;8336898;28;19920;-64
2021/09/05 00:49:36;;;;;;;;;;;10.50;99.90;;;;;;8357911;28;19905;-64
2021/09/05 00:53:36;;;;;;;;;;;10.40;99.90;;;;;;8354073;28;20501;-64
2021/09/05 00:57:37;;;;;;;;;;;10.40;99.90;;;;;;8362025;28;19955;-64
2021/09/05 01:01:38;;;;;;;;;;;10.40;99.90;;;;;;8363494;28;19905;-63
2021/09/05 01:05:39;;;;;;;;;;;10.40;99.90;;;;;;8363375;28;20326;-64
2021/09/05 01:09:40;;;;;;;;;;;10.60;99.90;;;;;;8363412;28;19905;-64
2021/09/05 01:13:41;;;;;;;;;;;10.60;99.90;;;;;;8363358;28;19915;-64
2021/09/05 01:17:41;;;;;;;;;;;10.50;99.90;;;;;;8363278;28;20050;-64
2021/09/05 01:21:43;;;;;;;;;;;10.40;99.90;;;;;;8363143;28;20266;-64
2021/09/05 01:25:43;;;;;;;;;;;10.00;99.90;;;;;;8363009;28;19909;-64
2021/09/05 01:29:44;;;;;;;;;;;9.90;99.90;;;;;;8363105;28;19999;-64
2021/09/05 01:33:44;;;;;;;;;;;9.90;99.90;;;;;;8345061;28;19908;-64
2021/09/05 01:37:45;;;;;;;;;;;9.80;99.90;;;;;;8362581;28;19913;-64
2021/09/05 01:41:45;;;;;;;;;;;9.90;99.90;;;;;;8362662;28;19916;-64
2021/09/05 01:45:46;;;;;;;;;;;10.40;99.90;;;;;;8362856;28;19966;-64
2021/09/05 01:49:46;;;;;;;;;;;10.40;99.90;;;;;;8362797;28;20273;-64
2021/09/05 01:53:47;;;;;;;;;;;10.20;99.90;;;;;;8362483;28;19932;-63
2021/09/05 01:57:47;;;;;;;;;;;10.10;99.90;;;;;;8362390;28;19908;-64
2021/09/05 02:01:47;;;;;;;;;;;10.00;99.90;;;;;;8362391;28;19911;-63
2021/09/05 02:05:48;;;;;;;;;;;10.10;99.90;;;;;;8342981;28;19912;-64
2021/09/05 02:09:48;;;;;;;;;;;10.00;99.90;;;;;;8342965;28;19952;-64
2021/09/05 02:13:49;;;;;;;;;;;9.90;99.90;;;;;;8361647;28;20327;-64
2021/09/05 02:17:49;;;;;;;;;;;10.00;99.90;;;;;;8361460;28;19905;-64
2021/09/05 02:21:50;;;;;;;;;;;10.00;99.90;;;;;;8343464;28;19904;-63
2021/09/05 02:25:50;;;;;;;;;;;9.90;99.90;;;;;;8361105;28;19912;-63
2021/09/05 02:29:51;;;;;;;;;;;10.10;99.90;;;;;;8361153;28;20014;-64
2021/09/05 02:33:51;;;;;;;;;;;10.00;99.90;;;;;;8361052;28;19970;-63
2021/09/05 02:37:52;;;;;;;;;;;9.70;99.90;;;;;;8360654;28;19905;-63
2021/09/05 02:41:52;;;;;;;;;;;9.40;99.90;;;;;;8360407;28;19931;-64
2021/09/05 02:45:53;;;;;;;;;;;9.50;99.90;;;;;;8428413;23;20346;-65
2021/09/05 02:49:53;;;;;;;;;;;9.60;99.90;;;;;;8393497;28;20368;-65
2021/09/05 02:53:54;;;;;;;;;;;9.60;99.90;;;;;;8377607;28;19913;-64
2021/09/05 02:57:54;;;;;;;;;;;9.50;99.90;;;;;;8359922;28;19904;-65
2021/09/05 03:01:55;;;;;;;;;;;9.40;99.90;;;;;;8341952;28;19987;-65
2021/09/05 03:05:55;;;;;;;;;;;9.70;99.90;;;;;;8341905;28;19911;-65
2021/09/05 03:09:55;;;;;;;;;;;9.80;99.90;;;;;;8359724;28;19928;-65
2021/09/05 03:13:56;;;;;;;;;;;9.80;99.90;;;;;;8341436;28;20030;-65
2021/09/05 03:17:57;;;;;;;;;;;9.60;99.90;;;;;;8359209;28;20003;-65
2021/09/05 03:21:57;;;;;;;;;;;9.30;99.90;;;;;;8359672;28;19908;-65
2021/09/05 03:25:58;;;;;;;;;;;9.30;99.90;;;;;;8341263;28;19911;-67
2021/09/05 03:29:58;;;;;;;;;;;9.20;99.90;;;;;;8359231;28;20450;-65
2021/09/05 03:33:59;;;;;;;;;;;9.30;99.90;;;;;;8358944;28;19909;-66
2021/09/05 03:37:59;;;;;;;;;;;9.30;99.90;;;;;;8359105;28;19905;-65
2021/09/05 03:42:00;;;;;;;;;;;9.50;99.90;;;;;;8359060;28;19905;-65
2021/09/05 03:46:00;;;;;;;;;;;9.40;99.90;;;;;;8340953;28;19934;-65
2021/09/05 03:50:00;;;;;;;;;;;9.40;99.90;;;;;;8358837;28;19959;-66
2021/09/05 03:54:01;;;;;;;;;;;9.20;99.90;;;;;;8358722;28;19909;-66
2021/09/05 03:58:02;;;;;;;;;;;9.30;99.90;;;;;;8358653;28;19995;-65
2021/09/05 04:02:03;;;;;;;;;;;9.30;99.90;;;;;;8359168;28;19912;-66
2021/09/05 04:06:03;;;;;;;;;;;9.20;99.90;;;;;;8358546;28;19904;-66
2021/09/05 04:10:10;;;;;;;;;;;9.00;99.90;;;;;;8358671;28;19905;-65
2021/09/05 04:14:11;;;;;;;;;;;8.80;99.90;;;;;;8358298;28;20487;-65
2021/09/05 04:18:11;;;;;;;;;;;8.70;99.90;;;;;;8340310;28;19940;-65
2021/09/05 04:22:12;;;;;;;;;;;8.70;99.90;;;;;;8358352;28;19915;-65
2021/09/05 04:26:12;;;;;;;;;;;8.90;99.90;;;;;;8358321;28;19908;-65
2021/09/05 04:30:13;;;;;;;;;;;9.00;99.90;;;;;;8359710;28;20429;-65
2021/09/05 04:34:13;;;;;;;;;;;8.90;99.90;;;;;;8364479;28;19913;-65
2021/09/05 04:38:14;;;;;;;;;;;8.90;99.90;;;;;;8346629;28;19905;-65
2021/09/05 04:42:14;;;;;;;;;;;9.20;99.90;;;;;;8364453;28;19905;-66
2021/09/05 04:46:15;;;;;;;;;;;9.00;99.90;;;;;;8364208;28;20003;-65
2021/09/05 04:50:15;;;;;;;;;;;8.90;99.90;;;;;;8364198;28;19915;-65
2021/09/05 04:54:16;;;;;;;;;;;8.80;99.90;;;;;;8363976;28;20292;-65
2021/09/05 04:58:16;;;;;;;;;;;9.00;99.90;;;;;;8363624;28;19909;-65
2021/09/05 05:02:17;;;;;;;;;;;8.90;99.90;;;;;;8363278;28;19917;-65
2021/09/05 05:06:17;;;;;;;;;;;9.00;99.90;;;;;;8345899;28;19916;-65
2021/09/05 05:10:17;;;;;;;;;;;9.30;99.90;;;;;;8345840;28;19905;-65
2021/09/05 05:14:18;;;;;;;;;;;9.40;99.90;;;;;;8363331;28;20292;-65
2021/09/05 05:18:18;;;;;;;;;;;9.50;99.90;;;;;;8363256;28;19912;-65
2021/09/05 05:22:19;;;;;;;;;;;9.50;99.90;;;;;;8363509;28;20430;-65
2021/09/05 05:26:19;;;;;;;;;;;9.80;99.90;;;;;;8345681;28;19905;-65
2021/09/05 05:30:20;;;;;;;;;;;9.80;99.90;;;;;;8363523;28;19992;-66
2021/09/05 05:34:20;;;;;;;;;;;10.00;99.90;;;;;;8363114;28;19959;-65
2021/09/05 05:38:23;;;;;;;;;;;10.20;99.90;;;;;;8363037;28;20335;-65
2021/09/05 05:42:24;;;;;;;;;;;10.40;99.90;;;;;;8361554;28;19941;-65
2021/09/05 05:46:24;;;;;;;;;;;10.60;99.90;;;;;;8344709;28;20411;-65
2021/09/05 05:50:25;;;;;;;;;;;10.80;99.90;;;;;;8344547;28;19915;-66
2021/09/05 05:54:25;;;;;;;;;;;10.90;99.90;;;;;;8361934;28;19991;-66
2021/09/05 05:58:27;;;;;;;;;;;11.00;99.90;;;;;;8362216;28;19958;-66
2021/09/05 06:02:28;;;;;;;;;;;11.20;99.90;;;;;;8362383;28;19922;-65
2021/09/05 06:06:29;;;;;;;;;;;11.40;99.90;;;;;;8361924;28;19905;-66
2021/09/05 06:10:31;;;;;;;;;;;11.50;99.90;;;;;;8362068;28;19911;-65
2021/09/05 06:14:32;;;;;;;;;;;11.70;99.90;;;;;;8343056;28;19913;-65
2021/09/05 06:18:32;;;;;;;;;;;12.00;99.90;;;;;;8344155;28;20402;-65
2021/09/05 06:22:33;;;;;;;;;;;12.10;99.90;;;;;;8343795;28;19951;-67
2021/09/05 06:26:33;;;;;;;;;;;12.30;99.90;;;;;;8361437;28;19912;-66
2021/09/05 06:30:34;;;;;;;;;;;12.60;99.90;;;;;;8343151;28;19981;-66
2021/09/05 06:34:35;;;;;;;;;;;12.80;99.90;;;;;;8360678;28;20003;-65
2021/09/05 06:38:35;;;;;;;;;;;13.00;99.90;;;;;;8360890;28;19905;-65
2021/09/05 06:42:36;;;;;;;;;;;13.20;99.90;;;;;;8360639;28;19915;-66
2021/09/05 06:46:36;;;;;;;;;;;13.50;99.90;;;;;;8360390;28;19908;-66
2021/09/05 06:50:37;;;;;;;;;;;13.70;99.90;;;;;;8360446;28;20011;-66
2021/09/05 06:54:37;;;;;;;;;;;14.00;99.90;;;;;;8359654;28;19916;-66
2021/09/05 06:58:38;;;;;;;;;;;14.30;99.90;;;;;;8360103;28;19905;-66
2021/09/05 07:02:38;;;;;;;;;;;14.40;99.90;;;;;;8359517;28;19908;-66
2021/09/05 07:06:39;;;;;;;;;;;14.70;99.90;;;;;;8359147;28;20285;-66
2021/09/05 07:10:40;;;;;;;;;;;14.80;99.90;;;;;;8341498;28;20448;-66
2021/09/05 07:14:40;;;;;;;;;;;15.00;99.90;;;;;;8358908;28;19912;-66
2021/09/05 07:18:41;;;;;;;;;;;15.30;99.90;;;;;;8359612;28;20372;-66
2021/09/05 07:22:42;;;;;;;;;;;15.50;99.90;;;;;;8357810;28;20404;-66
2021/09/05 07:26:42;;;;;;;;;;;15.70;99.90;;;;;;8358656;28;19999;-66
2021/09/05 07:30:43;;;;;;;;;;;15.90;99.90;;;;;;8341163;28;19905;-66
2021/09/05 07:34:44;;;;;;;;;;;16.20;99.90;;;;;;8358687;28;19916;-67
2021/09/05 07:38:45;;;;;;;;;;;16.70;99.90;;;;;;8340932;28;19912;-67
2021/09/05 07:42:45;;;;;;;;;;;17.10;99.90;;;;;;8358264;28;19913;-67
2021/09/05 07:46:46;;;;;;;;;;;17.50;99.90;;;;;;8357566;28;19959;-67
2021/09/05 07:50:46;;;;;;;;;;;17.90;99.90;;;;;;8358227;28;19974;-66
2021/09/05 07:54:47;;;;;;;;;;;18.20;99.90;;;;;;8357220;28;19942;-67
2021/09/05 07:58:47;;;;;;;;;;;18.20;99.90;;;;;;8358576;28;19909;-66
2021/09/05 08:02:48;;;;;;;;;;;18.40;99.90;;;;;;8358700;28;19908;-66
2021/09/05 08:06:48;;;;;;;;;;;18.50;99.90;;;;;;8362864;28;19911;-66
2021/09/05 08:10:49;;;;;;;;;;;18.80;99.90;;;;;;8365369;28;19931;-66
2021/09/05 08:14:49;;;;;;;;;;;19.00;99.90;;;;;;8364992;28;20292;-67
2021/09/05 08:18:50;;;;;;;;;;;19.30;99.90;;;;;;8346696;28;19909;-67
2021/09/05 08:22:50;;;;;;;;;;;19.50;99.90;;;;;;8365298;28;19905;-67
2021/09/05 08:26:51;;;;;;;;;;;19.60;99.90;;;;;;8346840;28;19909;-66
2021/09/05 08:30:51;;;;;;;;;;;19.70;99.90;;;;;;8365007;28;19912;-67
2021/09/05 08:34:51;;;;;;;;;;;19.80;99.90;;;;;;8364600;28;19908;-66
2021/09/05 08:38:52;;;;;;;;;;;20.00;99.90;;;;;;8347354;28;20327;-66
2021/09/05 08:46:59;;;;;;;;;;;20.10;99.90;;;;;;8358705;28;19924;-64
2021/09/05 08:50:59;;;;;;;;;;;20.40;99.90;;;;;;8345248;28;19932;-64
2021/09/05 08:55:00;;;;;;;;;;;20.70;99.90;;;;;;8353842;28;19920;-64
2021/09/05 08:59:00;;;;;;;;;;;21.10;99.90;;;;;;8338045;28;19963;-64
2021/09/05 09:03:01;;;;;;;;;;;21.30;99.90;;;;;;8357447;28;19995;-64
2021/09/05 09:07:07;;;;;;;;;;;21.30;99.90;;;;;;8363782;28;20281;-64
2021/09/05 09:11:11;;;;;;;;;;;21.40;99.90;;;;;;8346033;28;20296;-64
2021/09/05 09:15:25;;;;;;;;;;;21.40;99.90;;;;;;8363469;28;19995;-64
2021/09/05 09:19:27;;;;;;;;;;;21.50;99.90;;;;;;8341940;28;19935;-64
2021/09/05 09:23:28;;;;;;;;;;;21.60;99.90;;;;;;8330805;28;19938;-64
2021/09/05 09:27:29;;;;;;;;;;;21.50;99.90;;;;;;8329644;28;20280;-64
2021/09/05 09:31:29;;;;;;;;;;;21.70;99.90;;;;;;8330477;28;19916;-64
2021/09/05 09:36:02;;;;;;;;;;;22.10;99.90;;;;;;8329778;28;19912;-64
2021/09/05 09:40:03;;;;;;;;;;;22.20;99.90;;;;;;8296284;28;19905;-64
2021/09/05 09:44:11;;;;;;;;;;;22.60;99.90;;;;;;8329885;28;19986;-64
2021/09/05 09:48:20;;;;;;;;;;;22.70;99.90;;;;;;8329683;28;19988;-64
2021/09/05 09:52:22;;;;;;;;;;;22.80;99.90;;;;;;8329723;28;20276;-64
2021/09/05 09:56:23;;;;;;;;;;;23.00;99.90;;;;;;8311115;28;20012;-64
2021/09/05 10:00:24;;;;;;;;;;;23.00;99.90;;;;;;8329120;28;19905;-64
2021/09/05 10:04:27;;;;;;;;;;;23.10;99.90;;;;;;8311016;28;19912;-64
2021/09/05 10:08:31;;;;;;;;;;;23.30;99.90;;;;;;8328967;28;20380;-64
2021/09/05 10:12:32;;;;;;;;;;;23.10;99.90;;;;;;8328837;28;19905;-64
2021/09/05 10:16:33;;;;;;;;;;;23.20;99.90;;;;;;8332420;28;19937;-64
2021/09/05 10:20:34;;;;;;;;;;;23.30;99.90;;;;;;8326527;28;19908;-64
2021/09/05 10:24:41;;;;;;;;;;;23.70;99.90;;;;;;8343803;28;19905;-64
2021/09/05 10:28:47;;;;;;;;;;;23.70;99.90;;;;;;8343571;28;20361;-64
2021/09/05 10:32:49;;;;;;;;;;;23.70;99.90;;;;;;8343889;28;19913;-64
2021/09/05 10:36:50;;;;;;;;;;;23.90;99.90;;;;;;8343318;28;19940;-64
2021/09/05 10:40:52;;;;;;;;;;;24.40;99.90;;;;;;8342896;28;19912;-64
2021/09/05 10:45:03;;;;;;;;;;;24.50;99.90;;;;;;8344575;28;19912;-64
2021/09/05 10:49:04;;;;;;;;;;;24.70;99.90;;;;;;8351002;28;19909;-65
2021/09/05 10:53:18;;;;;;;;;;;25.00;99.90;;;;;;8342446;28;19936;-65
2021/09/05 10:57:38;;;;;;;;;;;25.30;98.10;;;;;;8359589;28;19974;-65
2021/09/05 11:01:39;;;;;;;;;;;25.70;97.20;;;;;;8360361;28;20387;-65
2021/09/05 11:05:40;;;;;;;;;;;29.00;92.30;;;;;;8359923;28;19942;-65
2021/09/05 11:09:41;;;;;;;;;;;32.60;76.30;;;;;;8341906;28;20360;-65
2021/09/05 11:13:48;;;;;;;;;;;35.60;58.80;;;;;;8336787;28;19948;-65
2021/09/05 11:17:53;;;;;;;;;;;37.50;51.40;;;;;;8343372;28;20316;-65
2021/09/05 11:21:54;;;;;;;;;;;38.00;47.50;;;;;;8342097;28;19905;-65
2021/09/05 11:25:54;;;;;;;;;;;38.10;45.50;;;;;;8341597;28;19915;-65
2021/09/05 11:29:59;;;;;;;;;;;39.10;44.70;;;;;;8339440;28;19904;-65
2021/09/05 11:34:06;;;;;;;;;;;40.40;39.90;;;;;;8356461;28;20419;-66
2021/09/05 11:38:07;;;;;;;;;;;41.00;39.80;;;;;;8346124;28;19909;-66
2021/09/05 11:42:07;;;;;;;;;;;42.30;39.10;;;;;;8357878;28;20391;-66
2021/09/05 11:46:12;;;;;;;;;;;42.90;35.60;;;;;;8324703;28;20357;-66
2021/09/05 11:50:14;;;;;;;;;;;43.60;34.40;;;;;;8328345;28;19913;-66
2021/09/05 11:54:14;;;;;;;;;;;42.60;32.20;;;;;;8332885;28;19963;-66
2021/09/05 11:58:15;;;;;;;;;;;41.50;35.00;;;;;;8328317;28;20369;-66
2021/09/05 12:02:25;;;;;;;;;;;41.40;34.40;;;;;;8335804;28;20399;-66
2021/09/05 12:06:25;;;;;;;;;;;42.80;34.70;;;;;;8320812;28;20000;-66
2021/09/05 12:10:29;;;;;;;;;;;43.40;31.60;;;;;;8353797;28;19928;-66
2021/09/05 12:14:34;;;;;;;;;;;42.80;31.10;;;;;;8313343;28;19913;-63
2021/09/05 12:18:35;;;;;;;;;;;42.60;33.10;;;;;;8327635;28;19917;-63
2021/09/05 12:22:44;;;;;;;;;;;43.80;31.40;;;;;;8328843;28;19928;-64
2021/09/05 12:26:45;;;;;;;;;;;45.30;29.90;;;;;;8308989;28;20533;-65
2021/09/05 12:30:55;;;;;;;;;;;44.70;30.00;;;;;;8328254;28;19916;-65
2021/09/05 12:34:58;;;;;;;;;;;44.60;29.30;;;;;;8315100;28;19920;-65
2021/09/05 12:38:59;;;;;;;;;;;44.90;29.50;;;;;;8334375;28;20530;-66
2021/09/05 12:42:59;;;;;;;;;;;46.40;28.20;;;;;;8327838;28;19916;-66
2021/09/05 12:47:00;;;;;;;;;;;45.80;28.40;;;;;;8336175;28;19919;-65
2021/09/05 12:51:02;;;;;;;;;;;46.70;27.60;;;;;;8331300;28;19909;-65
2021/09/05 12:55:03;;;;;;;;;;;46.20;26.30;;;;;;8345539;28;19909;-65
2021/09/05 12:59:03;;;;;;;;;;;46.00;27.60;;;;;;8348502;28;20688;-65
2021/09/05 13:03:04;;;;;;;;;;;46.60;27.80;;;;;;8339936;28;19931;-64
2021/09/05 13:07:04;;;;;;;;;;;46.30;26.00;;;;;;8324880;28;20392;-65
2021/09/05 13:11:05;;;;;;;;;;;44.10;28.30;;;;;;8330283;28;19954;-65
2021/09/05 13:15:05;;;;;;;;;;;43.50;29.10;;;;;;8329812;28;19917;-65
2021/09/05 13:19:06;;;;;;;;;;;43.70;28.70;;;;;;8348764;28;19915;-66
2021/09/05 13:23:06;;;;;;;;;;;44.90;26.70;;;;;;8317959;28;19916;-65
2021/09/05 13:27:07;;;;;;;;;;;45.90;27.00;;;;;;8340200;28;19915;-66
2021/09/05 13:31:11;;;;;;;;;;;46.30;27.40;;;;;;8335194;28;19932;-66
2021/09/05 13:35:11;;;;;;;;;;;47.70;26.10;;;;;;8354888;28;19912;-66
2021/09/05 13:39:12;;;;;;;;;;;46.80;27.20;;;;;;8345768;28;19916;-66
2021/09/05 13:43:12;;;;;;;;;;;48.20;25.80;;;;;;8350804;28;19908;-66
2021/09/05 13:47:13;;;;;;;;;;;49.40;25.10;;;;;;8345653;28;19912;-66
2021/09/05 13:51:13;;;;;;;;;;;49.60;24.30;;;;;;8335695;28;19916;-66
2021/09/05 13:55:14;;;;;;;;;;;48.70;24.90;;;;;;8353858;28;19927;-65
2021/09/05 13:59:14;;;;;;;;;;;46.60;25.90;;;;;;8351083;28;19912;-65
2021/09/05 14:03:15;;;;;;;;;;;46.00;26.90;;;;;;8325015;28;19952;-66
2021/09/05 14:07:15;;;;;;;;;;;47.10;26.10;;;;;;8340999;28;19909;-66
2021/09/05 14:11:18;;;;;;;;;;;47.30;26.30;;;;;;8323700;28;19915;-65
2021/09/05 14:15:18;;;;;;;;;;;46.60;26.40;;;;;;8339527;28;19921;-65
2021/09/05 14:19:19;;;;;;;5.10;3.70;;;44.40;27.20;;;;;;8335105;28;20472;-65
2021/09/05 14:23:19;;;;;;;5.95;3.78;;;39.00;32.20;;;;;;8341296;28;20021;-65
2021/09/05 14:27:25;;;;;;;3.80;3.50;;;41.00;31.10;;;;;;8352586;28;20486;-65
2021/09/05 14:48:58;;;;;;;5.00;3.80;;;46.90;25.90;;;;;;8290733;28;20100;-66
2021/09/05 14:57:19;;;;;;;;;;;44.30;27.90;;;;;;8277971;28;20410;-66
2021/09/05 15:01:25;;;;;;;4.07;3.60;;;44.40;28.00;;;;;;8276815;28;19910;-65
2021/09/05 15:13:52;;;;;;;5.33;4.00;;;41.60;29.20;;;;;;8277116;28;20405;-65
2021/09/05 15:17:52;;;;;;;4.10;3.65;;;40.10;31.60;;;;;;8285322;28;20025;-64
2021/09/05 15:22:03;;;;;;;5.38;3.33;;;38.60;33.40;;;;;;8292578;28;20030;-66
2021/09/05 15:26:03;;;;;;;5.80;3.75;;;37.80;33.10;;;;;;8273440;28;20034;-65
2021/09/05 15:30:21;;;;;;;;;;;36.60;35.00;;;;;;8293479;28;20033;-66
2021/09/05 15:34:46;;;;;;;;;;;36.70;34.50;;;;;;8291641;28;20419;-66
2021/09/05 15:51:36;;;;;;;;;;;38.00;33.40;;;;;;8276722;28;19916;-65
2021/09/05 15:55:42;;;;;;;;;;;36.20;35.20;;;;;;8273214;28;19956;-65
2021/09/05 16:00:27;;;;;;;;;;;35.30;37.70;;;;;;8278465;28;20505;-65
2021/09/05 16:16:44;;;;;;;;;;;38.90;33.50;;;;;;8275439;28;19976;-65
2021/09/05 16:20:45;;;;;;;;;;;38.30;33.60;;;;;;8282378;28;19910;-65
2021/09/05 16:24:45;;;;;;;;;;;37.40;34.70;;;;;;8291349;28;19917;-66
2021/09/05 16:28:45;;;;;;;;;;;37.70;34.40;;;;;;8264661;28;19949;-66
2021/09/05 16:33:09;;;;;;;;;;;38.00;33.50;;;;;;8282549;28;19913;-65
2021/09/05 16:37:18;;;;;;;;;;;37.50;34.20;;;;;;8281537;28;19984;-65
2021/09/05 16:41:19;;;;;;;;;;;37.30;34.70;;;;;;8282237;28;19952;-65
2021/09/05 16:45:20;;;;;;;;;;;37.30;35.20;;;;;;8281076;28;19914;-66
2021/09/05 16:49:20;;;;;;;;;;;37.80;34.50;;;;;;8283751;28;19914;-66
2021/09/05 16:53:20;;;;;;;;;;;37.50;35.90;;;;;;8282023;28;19913;-66
2021/09/05 16:57:21;;;;;;;;;;;36.80;36.30;;;;;;8280169;28;19941;-65
2021/09/05 17:01:21;;;;;;;;;;;33.70;41.10;;;;;;8281449;28;19905;-65
2021/09/05 17:05:22;;;;;;;;;;;30.80;45.30;;;;;;8280922;28;19960;-65
2021/09/05 17:09:22;;;;;;;;;;;28.40;50.40;;;;;;8281949;28;19906;-65
2021/09/05 17:13:23;;;;;;;;;;;26.40;55.80;;;;;;8281007;28;19964;-65
2021/09/05 17:17:23;;;;;;;;;;;25.20;58.10;;;;;;8280726;28;19952;-65
2021/09/05 17:21:25;;;;;;;;;;;24.30;63.60;;;;;;8287638;28;19913;-65
2021/09/05 17:25:25;;;;;;;;;;;23.80;67.30;;;;;;8274847;28;19911;-66
2021/09/05 17:29:26;;;;;;;;;;;23.50;68.80;;;;;;8296784;28;20313;-65
2021/09/05 17:33:26;;;;;;;;;;;23.10;69.10;;;;;;8291414;28;19920;-67
2021/09/05 17:37:27;;;;;;;;;;;22.40;73.40;;;;;;8279197;28;19906;-67
2021/09/05 17:41:27;;;;;;;;;;;21.80;80.00;;;;;;8296850;28;20412;-67
2021/09/05 17:45:28;;;;;;;;;;;21.40;87.10;;;;;;8277105;28;19913;-67
2021/09/05 17:49:28;;;;;;;;;;;21.20;88.00;;;;;;8293586;28;20293;-67
2021/09/05 17:53:29;;;;;;;;;;;20.80;92.50;;;;;;8292560;28;19928;-67
2021/09/05 17:57:29;;;;;;;;;;;20.30;97.10;;;;;;8295360;28;19947;-67
2021/09/05 18:01:30;;;;;;;;;;;20.10;99.90;;;;;;8295727;28;20015;-67
2021/09/05 18:05:31;;;;;;;;;;;20.00;99.90;;;;;;8290917;28;19921;-67
2021/09/05 18:09:32;;;;;;;;;;;19.80;99.90;;;;;;8289919;28;19910;-67
2021/09/05 18:13:33;;;;;;;;;;;19.60;99.90;;;;;;8290606;28;20040;-68
2021/09/05 18:17:34;;;;;;;;;;;19.20;99.90;;;;;;8287502;28;19909;-68
2021/09/05 18:21:34;;;;;;;;;;;18.80;99.90;;;;;;8290830;28;19916;-65
2021/09/05 18:25:35;;;;;;;;;;;18.50;99.90;;;;;;8294166;28;19918;-66
2021/09/05 18:29:35;;;;;;;;;;;18.20;99.90;;;;;;8294847;28;19920;-67
2021/09/05 18:33:36;;;;;;;;;;;18.10;99.90;;;;;;8293689;28;19922;-66
2021/09/05 18:37:37;;;;;;;;;;;17.80;99.90;;;;;;8293487;28;19931;-66
2021/09/05 18:41:38;;;;;;;;;;;17.70;99.90;;;;;;8293067;28;20016;-68
2021/09/05 18:45:39;;;;;;;;;;;17.60;99.90;;;;;;8273547;28;19913;-68
2021/09/05 18:49:39;;;;;;;;;;;17.60;99.90;;;;;;8286845;28;20296;-67
2021/09/05 18:53:40;;;;;;;;;;;17.30;99.90;;;;;;8288036;28;19913;-66
2021/09/05 18:57:40;;;;;;;;;;;17.30;99.90;;;;;;8270355;28;19932;-66
2021/09/05 19:01:41;;;;;;;;;;;17.30;99.90;;;;;;8278005;28;19910;-65
2021/09/05 19:05:42;;;;;;;;;;;17.00;99.90;;;;;;8276309;28;19913;-67
2021/09/05 19:09:42;;;;;;;;;;;16.90;99.90;;;;;;8267577;28;19909;-66
2021/09/05 19:13:42;;;;;;;;;;;16.90;99.90;;;;;;8291748;28;19916;-66
2021/09/05 19:17:43;;;;;;;;;;;16.90;99.90;;;;;;8276183;28;19909;-66
2021/09/05 19:21:43;;;;;;;;;;;16.70;99.90;;;;;;8273567;28;19910;-66
2021/09/05 19:25:44;;;;;;;;;;;16.50;99.90;;;;;;8293854;28;19909;-66
2021/09/05 19:29:45;;;;;;;;;;;16.30;99.90;;;;;;8294270;28;19956;-66
2021/09/05 19:33:45;;;;;;;;;;;16.20;99.90;;;;;;8273639;28;19914;-66
2021/09/05 19:37:46;;;;;;;;;;;16.00;99.90;;;;;;8258402;28;19910;-67
2021/09/05 19:41:46;;;;;;;;;;;15.80;99.90;;;;;;8273868;28;19992;-67
2021/09/05 19:45:47;;;;;;;;;;;15.80;99.90;;;;;;8290755;28;19936;-66
2021/09/05 19:49:48;;;;;;;;;;;15.60;99.90;;;;;;8291046;28;19910;-66
2021/09/05 19:53:48;;;;;;;;;;;15.30;99.90;;;;;;8291135;28;19913;-66
2021/09/05 19:57:49;;;;;;;;;;;15.20;99.90;;;;;;8265994;28;19914;-64
2021/09/05 20:01:49;;;;;;;;;;;15.10;99.90;;;;;;8266292;28;19913;-66
2021/09/05 20:05:50;;;;;;;;;;;15.10;99.90;;;;;;8268516;28;19940;-66
2021/09/05 20:09:50;;;;;;;;;;;15.10;99.90;;;;;;8264260;28;19914;-66
2021/09/05 20:13:51;;;;;;;;;;;15.20;99.90;;;;;;8270018;28;19916;-66
2021/09/05 20:17:51;;;;;;;;;;;15.00;99.90;;;;;;8277495;28;19905;-66
2021/09/05 20:21:55;;;;;;;;;;;14.70;99.90;;;;;;8266622;28;19996;-66
2021/09/05 20:25:55;;;;;;;;;;;14.60;99.90;;;;;;8240578;28;19980;-66
2021/09/05 20:29:56;;;;;;;;;;;14.70;99.90;;;;;;8258779;28;19951;-66
2021/09/05 20:33:56;;;;;;;;;;;14.60;99.90;;;;;;8259124;28;20462;-67
2021/09/05 20:37:57;;;;;;;;;;;14.60;99.90;;;;;;8242026;28;20428;-66
2021/09/05 20:41:57;;;;;;;;;;;14.60;99.90;;;;;;8260157;28;19905;-66
2021/09/05 20:45:58;;;;;;;;;;;14.50;99.90;;;;;;8283331;23;19930;-64
2021/09/05 20:50:05;;;;;;;;;;;14.30;99.90;;;;;;8340405;28;20474;-64
2021/09/05 20:54:05;;;;;;;;;;;14.20;99.90;;;;;;8340697;28;19915;-64
2021/09/05 20:58:05;;;;;;;;;;;14.20;99.90;;;;;;8334010;28;20266;-64
2021/09/05 21:02:06;;;;;;;;;;;14.00;99.90;;;;;;8325518;28;19905;-65
2021/09/05 21:06:06;;;;;;;;;;;13.90;99.90;;;;;;8325178;28;19905;-64
2021/09/05 21:10:07;;;;;;;;;;;13.70;99.90;;;;;;8325442;28;20373;-64
2021/09/05 21:14:08;;;;;;;;;;;14.10;99.90;;;;;;8329714;28;19963;-64
2021/09/05 21:18:09;;;;;;;;;;;14.10;99.90;;;;;;8331093;28;19905;-64
2021/09/05 21:22:10;;;;;;;;;;;13.80;99.90;;;;;;8331061;28;19909;-64
2021/09/05 21:26:11;;;;;;;;;;;13.60;99.90;;;;;;8313124;28;19963;-65
2021/09/05 21:30:14;;;;;;;;;;;13.40;99.90;;;;;;8331248;28;19911;-64
2021/09/05 21:34:14;;;;;;;;;;;13.40;99.90;;;;;;8331174;28;20022;-64
2021/09/05 21:38:15;;;;;;;;;;;13.40;99.90;;;;;;8330627;28;20401;-64
2021/09/05 21:42:15;;;;;;;;;;;13.40;99.90;;;;;;8330200;28;19912;-64
2021/09/05 21:46:16;;;;;;;;;;;13.60;99.90;;;;;;8329965;28;19913;-64
2021/09/05 21:50:16;;;;;;;;;;;13.30;99.90;;;;;;8330168;28;20491;-64
2021/09/05 21:54:17;;;;;;;;;;;13.20;99.90;;;;;;8330110;28;19908;-64
2021/09/05 21:58:18;;;;;;;;;;;13.30;99.90;;;;;;8329793;28;19905;-64
2021/09/05 22:02:18;;;;;;;;;;;13.00;99.90;;;;;;8329844;28;19905;-64
2021/09/05 22:06:19;;;;;;;;;;;13.00;99.90;;;;;;8329322;28;19909;-64
2021/09/05 22:10:19;;;;;;;;;;;12.90;99.90;;;;;;8329514;28;20000;-64
2021/09/05 22:14:20;;;;;;;;;;;13.10;99.90;;;;;;8329590;28;19932;-64
2021/09/05 22:18:20;;;;;;;;;;;13.20;99.90;;;;;;8329405;28;19916;-64
2021/09/05 22:22:21;;;;;;;;;;;12.90;99.90;;;;;;8329030;28;19951;-64
2021/09/05 22:26:21;;;;;;;;;;;12.80;99.90;;;;;;8327900;28;19984;-64
2021/09/05 22:30:22;;;;;;;;;;;12.90;99.90;;;;;;8311138;28;19936;-64
2021/09/05 22:34:23;;;;;;;;;;;12.80;99.90;;;;;;8328771;28;19959;-64
2021/09/05 22:38:23;;;;;;;;;;;13.00;99.90;;;;;;8328552;28;19960;-64
2021/09/05 22:42:23;;;;;;;;;;;12.60;99.90;;;;;;8328186;28;19951;-64
2021/09/05 22:46:24;;;;;;;;;;;12.60;99.90;;;;;;8327939;28;19913;-64
2021/09/05 22:50:24;;;;;;;;;;;12.40;99.90;;;;;;8328193;28;19909;-64
2021/09/05 22:54:25;;;;;;;;;;;12.30;99.90;;;;;;8328047;28;20305;-64
2021/09/05 22:58:25;;;;;;;;;;;12.20;99.90;;;;;;8310306;28;19912;-64
2021/09/05 23:02:26;;;;;;;;;;;12.40;99.90;;;;;;8327850;28;20389;-64
2021/09/05 23:06:26;;;;;;;;;;;12.70;99.90;;;;;;8327383;28;19990;-64
2021/09/05 23:10:27;;;;;;;;;;;12.30;99.90;;;;;;8327752;28;19912;-64
2021/09/05 23:14:28;;;;;;;;;;;12.20;99.90;;;;;;8327458;28;19908;-64
2021/09/05 23:18:28;;;;;;;;;;;12.20;99.90;;;;;;8327430;28;19924;-65
2021/09/05 23:22:29;;;;;;;;;;;12.20;99.90;;;;;;8309559;28;20369;-64
2021/09/05 23:26:29;;;;;;;;;;;12.00;99.90;;;;;;8326948;28;19905;-64
2021/09/05 23:30:31;;;;;;;;;;;11.80;99.90;;;;;;8327120;28;19905;-64
2021/09/05 23:34:31;;;;;;;;;;;12.00;99.90;;;;;;8326529;28;19917;-64
2021/09/05 23:38:32;;;;;;;;;;;12.00;99.90;;;;;;8309270;28;19976;-64
2021/09/05 23:42:32;;;;;;;;;;;11.90;99.90;;;;;;8326515;28;19905;-64
2021/09/05 23:46:33;;;;;;;;;;;11.80;99.90;;;;;;8326244;28;19963;-64
2021/09/05 23:50:33;;;;;;;;;;;11.80;99.90;;;;;;8326500;28;20348;-64
2021/09/05 23:54:34;;;;;;;;;;;11.70;99.90;;;;;;8308637;28;19916;-64
2021/09/05 23:58:35;;;;;;;;;;;11.60;99.90;;;;;;8326213;28;19916;-64
